Boston, Massachusetts
Traffic Map
Current Weather Conditions
Boston, Massachusetts
Overcast Drizzle
Overcast
46°
Feels Like: 42°
Wind Chill: 42° Ceiling: 400
Heat Index: 46° Visibility: 3mi
Dew Point: 44° Wind: 8mph
Humidity: 93% Direction: 60° (ENE)
Pressure: 30.07in Gusts: 0mph
Raw Report DataKBOS 020754Z 06007KT 3SM -DZ BR OVC004 08/07 A3007 RMK AO2 SLP182 P0000 T00780067
Traffic Incident Summary
Active as of:
Severity:
Category:
InformationThere was an issue retrieving the traffic information for this location. Please try a different location or try again shortly.
Advertisements
Track Severe Weather on mobile